Time;durP1;ratioP1;P1;durP2;ratioP2;P2;SDS_P1;SDS_P2;PMS_P1;PMS_P2;Temp;Humidity;BMP_temperature;BMP_pressure;BME280_temperature;BME280_humidity;BME280_pressure;Samples;Min_cycle;Max_cycle;Signal;HPM_P1;HPM_P2
2022/08/14 00:00:55;;;;;;;8.70;6.75;;;21.20;95.30;;;;;;4925589;29;20102;-58
2022/08/14 00:03:26;;;;;;;8.82;6.97;;;21.20;95.30;;;;;;4925419;29;20047;-57
2022/08/14 00:05:57;;;;;;;8.90;6.03;;;21.10;95.30;;;;;;4936783;29;20506;-57
2022/08/14 00:08:24;;;;;;;8.65;6.95;;;21.10;95.70;;;;;;4929145;28;20067;-57
2022/08/14 00:10:49;;;;;;;9.77;7.43;;;21.10;95.40;;;;;;4900523;28;20061;-57
2022/08/14 00:13:22;;;;;;;8.30;7.50;;;21.10;95.50;;;;;;4941633;29;20067;-57
2022/08/14 00:15:51;;;;;;;7.93;7.10;;;21.10;95.50;;;;;;4933940;28;20052;-57
2022/08/14 00:18:30;;;;;;;13.35;7.70;;;21.10;95.50;;;;;;4928660;29;20059;-57
2022/08/14 00:20:56;;;;;;;9.88;7.93;;;21.00;95.60;;;;;;4927212;29;20155;-57
2022/08/14 00:23:25;;;;;;;9.85;7.05;;;21.00;95.60;;;;;;4927777;29;20046;-57
2022/08/14 00:25:56;;;;;;;9.50;7.57;;;21.00;95.80;;;;;;4930244;29;20054;-59
2022/08/14 00:28:26;;;;;;;14.48;8.70;;;21.00;95.80;;;;;;4940189;28;20054;-58
2022/08/14 00:30:56;;;;;;;9.05;7.88;;;21.00;95.80;;;;;;4937309;29;20132;-57
2022/08/14 00:33:25;;;;;;;8.48;7.57;;;20.90;95.90;;;;;;4925446;29;20047;-56
2022/08/14 00:35:52;;;;;;;11.65;7.97;;;20.90;96.00;;;;;;4924812;29;20064;-58
2022/08/14 00:38:19;;;;;;;8.93;8.15;;;20.80;96.10;;;;;;4928316;29;20051;-57
2022/08/14 00:40:45;;;;;;;8.40;7.57;;;20.80;96.20;;;;;;4923577;29;20051;-57
2022/08/14 00:43:11;;;;;;;8.93;8.00;;;20.70;96.30;;;;;;4924686;29;20588;-57
2022/08/14 00:45:37;;;;;;;8.40;7.57;;;20.70;96.30;;;;;;4924898;29;20083;-57
2022/08/14 00:48:03;;;;;;;8.63;7.75;;;20.70;96.50;;;;;;4924030;29;20503;-57
2022/08/14 00:50:30;;;;;;;11.75;8.43;;;20.70;96.50;;;;;;4925477;29;20098;-58
2022/08/14 00:53:01;;;;;;;10.70;8.57;;;20.70;96.50;;;;;;4925190;29;20058;-57
2022/08/14 00:55:29;;;;;;;9.90;8.38;;;20.60;96.60;;;;;;4919843;29;20147;-57
2022/08/14 01:00:43;;;;;;;10.05;8.32;;;20.60;96.80;;;;;;4924358;29;20066;-57
2022/08/14 01:03:09;;;;;;;9.70;8.70;;;20.50;96.90;;;;;;4924755;28;20048;-58
2022/08/14 01:05:35;;;;;;;12.85;8.85;;;20.50;96.90;;;;;;4925103;29;20062;-57
2022/08/14 01:08:02;;;;;;;10.85;9.65;;;20.50;97.20;;;;;;4924773;29;20051;-57
2022/08/14 01:13:23;;;;;;;10.02;9.13;;;20.50;97.10;;;;;;4941217;28;20142;-57
2022/08/14 01:15:53;;;;;;;10.18;9.23;;;20.50;97.10;;;;;;4941337;29;20528;-57
2022/08/14 01:21:07;;;;;;;10.55;9.55;;;20.40;97.40;;;;;;4923934;29;20114;-56
2022/08/14 01:23:36;;;;;;;11.05;9.98;;;20.30;97.60;;;;;;4922697;29;20051;-57
2022/08/14 01:26:03;;;;;;;10.32;9.43;;;20.30;97.80;;;;;;4923875;29;20051;-56
2022/08/14 01:28:36;;;;;;;12.13;9.68;;;20.30;97.60;;;;;;4928754;29;20039;-57
2022/08/14 01:31:17;;;;;;;10.32;9.40;;;20.20;97.90;;;;;;4930359;28;20410;-57
2022/08/14 01:33:46;;;;;;;10.52;9.65;;;20.20;97.90;;;;;;4922288;29;20093;-57
2022/08/14 01:36:19;;;;;;;10.18;9.20;;;20.20;98.30;;;;;;4921847;29;20707;-57
2022/08/14 01:38:50;;;;;;;11.38;10.38;;;20.20;98.10;;;;;;4922259;29;20059;-57
2022/08/14 01:41:22;;;;;;;10.65;9.57;;;20.20;98.20;;;;;;4931320;29;20402;-57
2022/08/14 01:43:59;;;;;;;11.60;9.57;;;20.10;98.40;;;;;;4942801;28;20391;-57
2022/08/14 01:46:33;;;;;;;12.65;10.82;;;20.10;98.60;;;;;;4941737;29;20047;-57
2022/08/14 01:49:00;;;;;;;11.85;10.68;;;20.00;98.80;;;;;;4942381;28;20413;-57
2022/08/14 01:51:27;;;;;;;13.73;11.60;;;20.00;99.00;;;;;;4942390;28;20059;-57
2022/08/14 01:53:55;;;;;;;12.70;11.68;;;20.00;99.20;;;;;;4942852;28;20144;-57
2022/08/14 01:56:38;;;;;;;12.25;11.00;;;19.90;99.40;;;;;;4940693;29;20062;-57
2022/08/14 01:59:06;;;;;;;13.38;12.13;;;19.90;99.60;;;;;;4928362;28;20066;-57
2022/08/14 02:01:34;;;;;;;12.75;11.45;;;19.90;99.50;;;;;;4922982;29;20067;-56
2022/08/14 02:04:00;;;;;;;12.38;11.30;;;19.90;99.60;;;;;;4930818;28;20094;-58
2022/08/14 02:06:26;;;;;;;12.00;10.80;;;19.80;99.90;;;;;;4941108;29;20146;-58
2022/08/14 02:08:53;;;;;;;11.88;10.80;;;19.70;99.90;;;;;;4942834;28;20079;-57
2022/08/14 02:11:22;;;;;;;11.85;10.85;;;19.70;99.90;;;;;;4928914;28;20064;-57
2022/08/14 02:14:03;;;;;;;12.75;11.70;;;19.70;99.90;;;;;;4943260;28;20055;-55
2022/08/14 02:16:35;;;;;;;10.95;10.10;;;19.60;99.90;;;;;;4941442;29;20063;-56
2022/08/14 02:19:05;;;;;;;11.57;10.40;;;19.60;99.90;;;;;;4941265;29;20066;-54
2022/08/14 02:21:32;;;;;;;14.85;11.00;;;19.60;99.90;;;;;;4941510;28;20100;-55
2022/08/14 02:24:02;;;;;;;16.50;11.85;;;19.60;99.90;;;;;;4943033;28;20145;-56
2022/08/14 02:26:34;;;;;;;13.07;11.50;;;19.60;99.90;;;;;;4940533;29;20960;-57
2022/08/14 02:29:04;;;;;;;13.50;12.05;;;19.60;99.90;;;;;;4933028;28;20070;-56
2022/08/14 02:31:35;;;;;;;12.55;11.30;;;19.50;99.90;;;;;;4930114;29;20549;-56
2022/08/14 02:34:09;;;;;;;13.50;12.23;;;19.50;99.90;;;;;;4942722;28;20061;-56
2022/08/14 02:36:37;;;;;;;12.88;11.68;;;19.50;99.90;;;;;;4942061;28;20053;-57
2022/08/14 02:39:08;;;;;;;13.57;12.20;;;19.50;99.90;;;;;;4925138;29;20065;-55
2022/08/14 02:41:35;;;;;;;12.77;11.48;;;19.40;99.90;;;;;;4942160;28;20402;-55
2022/08/14 02:44:03;;;;;;;12.20;10.95;;;19.40;99.90;;;;;;4940565;29;20063;-56
2022/08/14 02:46:31;;;;;;;12.95;11.75;;;19.40;99.90;;;;;;4942530;28;20059;-56
2022/08/14 02:48:58;;;;;;;13.40;11.88;;;19.40;99.90;;;;;;4940272;29;20054;-56
2022/08/14 02:51:25;;;;;;;13.35;11.45;;;19.40;99.90;;;;;;4939737;28;20051;-56
2022/08/14 02:53:53;;;;;;;13.48;12.27;;;19.40;99.90;;;;;;4925146;28;20087;-57
2022/08/14 02:56:19;;;;;;;12.95;11.68;;;19.40;99.90;;;;;;4923343;29;20226;-56
2022/08/14 02:58:50;;;;;;;13.57;12.27;;;19.40;99.90;;;;;;4927954;29;20055;-56
2022/08/14 03:01:19;;;;;;;14.20;12.85;;;19.40;99.90;;;;;;4922534;29;20059;-57
2022/08/14 03:03:49;;;;;;;13.38;12.18;;;19.40;99.90;;;;;;4922974;29;20109;-56
2022/08/14 03:06:19;;;;;;;13.73;12.48;;;19.30;99.90;;;;;;4923411;29;20052;-56
2022/08/14 03:08:46;;;;;;;14.48;13.13;;;19.30;99.90;;;;;;4922268;29;20052;-56
2022/08/14 03:11:12;;;;;;;14.80;13.27;;;19.30;99.90;;;;;;4923359;29;20168;-58
2022/08/14 03:13:50;;;;;;;15.45;13.73;;;19.30;99.90;;;;;;4935795;29;21457;-56
2022/08/14 03:16:20;;;;;;;13.95;12.52;;;19.30;99.90;;;;;;4941358;29;20138;-57
2022/08/14 03:18:48;;;;;;;14.43;13.02;;;19.20;99.90;;;;;;4942311;28;20053;-56
2022/08/14 03:21:16;;;;;;;14.27;12.93;;;19.20;99.90;;;;;;4941607;28;20082;-55
2022/08/14 03:23:45;;;;;;;13.35;12.23;;;19.20;99.90;;;;;;4933085;28;20091;-58
2022/08/14 03:26:14;;;;;;;13.82;12.73;;;19.20;99.90;;;;;;4934150;29;20090;-54
2022/08/14 03:28:47;;;;;;;14.18;12.98;;;19.20;99.90;;;;;;4927830;29;20056;-56
2022/08/14 03:31:14;;;;;;;13.73;12.20;;;19.20;99.90;;;;;;4922241;29;20051;-56
2022/08/14 03:33:42;;;;;;;16.15;13.15;;;19.20;99.90;;;;;;4922743;29;20054;-55
2022/08/14 03:36:13;;;;;;;14.98;13.50;;;19.20;99.90;;;;;;4921418;29;20066;-56
2022/08/14 03:38:42;;;;;;;14.63;13.13;;;19.20;99.90;;;;;;4923007;29;20131;-57
2022/08/14 03:41:21;;;;;;;16.15;13.52;;;19.20;99.90;;;;;;4921742;29;20062;-56
2022/08/14 03:43:49;;;;;;;14.93;13.43;;;19.20;99.90;;;;;;4920496;29;20133;-56
2022/08/14 03:46:17;;;;;;;14.45;13.05;;;19.20;99.90;;;;;;4922101;29;20140;-55
2022/08/14 03:48:44;;;;;;;14.82;13.27;;;19.10;99.90;;;;;;4921006;29;20063;-56
2022/08/14 03:51:12;;;;;;;15.02;13.38;;;19.10;99.90;;;;;;4921716;29;20052;-57
2022/08/14 03:53:43;;;;;;;14.05;12.60;;;19.10;99.90;;;;;;4922363;29;20064;-55
2022/08/14 03:56:15;;;;;;;13.15;11.93;;;19.10;99.90;;;;;;4932834;28;20055;-55
2022/08/14 03:58:49;;;;;;;14.55;13.23;;;19.10;99.90;;;;;;4928642;29;20163;-57
2022/08/14 04:01:18;;;;;;;14.27;12.85;;;19.10;99.90;;;;;;4924802;29;20435;-55
2022/08/14 04:03:46;;;;;;;14.52;13.10;;;19.10;99.90;;;;;;4923535;29;20547;-57
2022/08/14 04:06:12;;;;;;;13.77;12.45;;;19.10;99.90;;;;;;4925654;29;20065;-56
2022/08/14 04:08:40;;;;;;;16.70;13.55;;;19.10;99.90;;;;;;4924814;29;20048;-55
2022/08/14 04:11:07;;;;;;;15.35;13.73;;;19.00;99.90;;;;;;4924710;29;20060;-55
2022/08/14 04:13:36;;;;;;;16.15;14.20;;;19.00;99.90;;;;;;4925055;28;20048;-54
2022/08/14 04:16:08;;;;;;;18.40;15.15;;;19.00;99.90;;;;;;4925604;29;20051;-56
2022/08/14 04:18:38;;;;;;;16.77;15.07;;;18.90;99.90;;;;;;4928040;28;20788;-56
2022/08/14 04:21:04;;;;;;;17.02;14.40;;;18.90;99.90;;;;;;4923465;29;20063;-56
2022/08/14 04:23:31;;;;;;;16.15;14.65;;;18.80;99.90;;;;;;4925413;29;20066;-56
2022/08/14 04:25:57;;;;;;;15.68;14.02;;;18.80;99.90;;;;;;4925479;29;20777;-57
2022/08/14 04:28:25;;;;;;;16.77;15.02;;;18.70;99.90;;;;;;4925273;29;20166;-55
2022/08/14 04:30:51;;;;;;;17.50;16.05;;;18.70;99.90;;;;;;4924761;29;20134;-56
2022/08/14 04:33:17;;;;;;;17.75;16.25;;;18.70;99.90;;;;;;4923867;29;20089;-57
2022/08/14 04:35:43;;;;;;;19.35;17.48;;;18.60;99.90;;;;;;4923699;29;20059;-54
2022/08/14 04:44:01;;;;;;;18.38;16.80;;;18.60;99.90;;;;;;4925108;28;20159;-54
2022/08/14 04:46:27;;;;;;;18.90;16.90;;;18.60;99.90;;;;;;4924954;29;20129;-56
2022/08/14 04:48:54;;;;;;;17.77;16.23;;;18.60;99.90;;;;;;4925341;29;20047;-55
2022/08/14 04:51:28;;;;;;;17.65;16.15;;;18.60;99.90;;;;;;4925066;29;20059;-55
2022/08/14 04:53:55;;;;;;;18.35;16.42;;;18.70;99.90;;;;;;4929596;29;20047;-55
2022/08/14 04:56:25;;;;;;;17.27;15.85;;;18.70;99.90;;;;;;4925484;29;20114;-54
2022/08/14 04:58:56;;;;;;;17.00;15.50;;;18.80;99.90;;;;;;4929178;29;20075;-54
2022/08/14 05:01:24;;;;;;;17.48;15.80;;;18.90;99.90;;;;;;4924804;28;20129;-56
2022/08/14 05:03:51;;;;;;;16.63;15.23;;;18.90;99.90;;;;;;4926278;29;20562;-55
2022/08/14 05:06:20;;;;;;;15.82;14.45;;;19.10;99.90;;;;;;4925019;28;20052;-54
2022/08/14 05:08:47;;;;;;;16.77;14.55;;;19.30;99.90;;;;;;4925710;29;20093;-55
2022/08/14 05:11:14;;;;;;;15.98;14.27;;;20.10;99.90;;;;;;4932182;28;20058;-57
2022/08/14 05:13:42;;;;;;;16.25;14.65;;;21.10;99.90;;;;;;4943855;28;20063;-55
2022/08/14 05:16:12;;;;;;;15.02;13.20;;;22.10;99.90;;;;;;4943648;28;20556;-56
2022/08/14 05:18:39;;;;;;;15.20;13.85;;;23.00;99.90;;;;;;4924691;29;20081;-55
2022/08/14 05:21:10;;;;;;;14.70;13.40;;;23.90;99.90;;;;;;4943331;28;20051;-55
2022/08/14 05:23:38;;;;;;;14.98;13.60;;;24.70;99.30;;;;;;4934349;29;20063;-57
2022/08/14 05:26:11;;;;;;;14.57;13.35;;;25.30;98.00;;;;;;4924399;29;20062;-54
2022/08/14 05:28:43;;;;;;;14.57;13.27;;;26.10;97.10;;;;;;4923306;29;20058;-56
2022/08/14 05:31:11;;;;;;;13.95;12.75;;;26.80;96.10;;;;;;4924712;29;20097;-55
2022/08/14 05:33:38;;;;;;;14.48;13.23;;;27.20;95.30;;;;;;4924781;28;20067;-54
2022/08/14 05:36:08;;;;;;;14.38;12.98;;;27.80;94.60;;;;;;4924232;29;20048;-55
2022/08/14 05:38:39;;;;;;;14.80;13.30;;;28.10;93.70;;;;;;4929653;29;20131;-55
2022/08/14 05:41:11;;;;;;;14.55;13.02;;;28.40;92.30;;;;;;4925170;28;20498;-55
2022/08/14 05:43:39;;;;;;;12.02;11.00;;;28.40;92.40;;;;;;4906742;29;20700;-56
2022/08/14 05:46:06;;;;;;;13.77;12.43;;;28.80;92.40;;;;;;4922431;29;20055;-55
2022/08/14 05:48:32;;;;;;;13.65;12.57;;;29.10;92.00;;;;;;4922534;29;20134;-56
2022/08/14 05:50:58;;;;;;;13.32;12.23;;;29.00;91.20;;;;;;4922765;29;20044;-57
2022/08/14 05:53:26;;;;;;;14.00;12.45;;;29.50;91.20;;;;;;4928905;29;20067;-57
2022/08/14 05:55:54;;;;;;;12.70;11.57;;;29.80;91.00;;;;;;4922628;29;20550;-57
2022/08/14 05:58:21;;;;;;;13.40;12.02;;;30.00;90.10;;;;;;4941922;29;20051;-57
2022/08/14 06:00:48;;;;;;;13.73;12.32;;;29.90;88.80;;;;;;4936365;28;20047;-56
2022/08/14 06:03:17;;;;;;;13.00;11.80;;;30.30;90.00;;;;;;4937354;29;20048;-56
2022/08/14 06:05:44;;;;;;;12.98;11.95;;;30.50;89.40;;;;;;4932659;29;20518;-55
2022/08/14 06:08:18;;;;;;;13.38;12.00;;;30.70;89.00;;;;;;4942859;28;20530;-57
2022/08/14 06:10:46;;;;;;;13.32;12.13;;;31.10;87.40;;;;;;4941102;28;20206;-57
2022/08/14 06:13:13;;;;;;;12.35;11.23;;;31.30;87.40;;;;;;4936770;28;20044;-58
2022/08/14 06:15:40;;;;;;;11.30;10.43;;;32.00;87.00;;;;;;4941391;29;20043;-57
2022/08/14 06:18:07;;;;;;;11.32;10.48;;;32.20;84.80;;;;;;4928104;28;20495;-57
2022/08/14 06:20:33;;;;;;;11.32;10.43;;;32.20;85.60;;;;;;4923763;29;20055;-58
2022/08/14 06:23:01;;;;;;;10.80;9.80;;;32.70;85.00;;;;;;4923484;29;20091;-56
2022/08/14 06:25:27;;;;;;;12.07;11.00;;;33.10;84.40;;;;;;4935708;29;20043;-57
2022/08/14 06:27:53;;;;;;;11.10;10.05;;;33.60;83.80;;;;;;4927349;29;20047;-58
2022/08/14 06:30:24;;;;;;;10.18;9.30;;;33.60;83.30;;;;;;4941265;29;20138;-57
2022/08/14 06:32:51;;;;;;;10.70;9.75;;;34.40;82.40;;;;;;4922036;29;20101;-57
2022/08/14 06:35:19;;;;;;;10.60;9.60;;;34.50;81.70;;;;;;4923600;29;20055;-58
2022/08/14 06:37:50;;;;;;;10.23;9.43;;;34.20;81.10;;;;;;4921499;29;20155;-57
2022/08/14 06:40:20;;;;;;;10.10;9.30;;;34.40;80.10;;;;;;4920975;29;20135;-58
2022/08/14 06:42:46;;;;;;;10.55;9.65;;;34.90;80.30;;;;;;4923062;29;20054;-58
2022/08/14 06:45:12;;;;;;;9.98;9.20;;;34.70;80.30;;;;;;4921846;29;20457;-57
2022/08/14 06:47:44;;;;;;;10.05;9.00;;;34.90;80.10;;;;;;4922619;29;20040;-58
2022/08/14 06:50:13;;;;;;;9.63;8.55;;;34.90;79.70;;;;;;4922492;29;20055;-56
2022/08/14 06:52:42;;;;;;;10.27;9.15;;;34.80;80.00;;;;;;4932021;28;20054;-55
2022/08/14 06:55:11;;;;;;;9.70;8.80;;;35.10;79.60;;;;;;4941511;28;20848;-56
2022/08/14 06:57:46;;;;;;;9.48;8.57;;;34.70;79.60;;;;;;4939671;28;20052;-56
2022/08/14 07:00:18;;;;;;;9.55;8.75;;;35.20;78.70;;;;;;4922490;29;20051;-57
2022/08/14 07:05:46;;;;;;;11.57;8.85;;;35.50;79.00;;;;;;4922607;29;20052;-56
2022/08/14 07:08:25;;;;;;;9.48;8.60;;;34.90;79.00;;;;;;4923181;29;20437;-56
2022/08/14 07:10:54;;;;;;;10.02;8.48;;;34.30;79.20;;;;;;4919521;29;20067;-57
2022/08/14 07:13:21;;;;;;;10.02;9.02;;;33.10;80.30;;;;;;4941371;28;20051;-56
2022/08/14 07:15:52;;;;;;;9.25;8.55;;;32.10;81.70;;;;;;4924482;29;20087;-56
2022/08/14 07:18:23;;;;;;;8.93;8.00;;;31.70;83.00;;;;;;4935131;28;20094;-56
2022/08/14 07:20:50;;;;;;;8.77;7.97;;;31.40;84.70;;;;;;4922084;29;20055;-57
2022/08/14 07:23:16;;;;;;;9.20;8.25;;;31.40;84.10;;;;;;4922592;29;20155;-56
2022/08/14 07:25:44;;;;;;;8.25;7.45;;;31.40;83.20;;;;;;4924481;29;20051;-56
2022/08/14 07:28:22;;;;;;;9.32;8.48;;;31.50;83.70;;;;;;4927633;29;21498;-57
2022/08/14 07:30:58;;;;;;;9.00;8.40;;;31.20;83.60;;;;;;4939576;29;20066;-56
2022/08/14 07:33:28;;;;;;;9.73;8.68;;;31.10;84.00;;;;;;4939527;28;20059;-57
2022/08/14 07:35:56;;;;;;;9.52;8.50;;;31.00;84.50;;;;;;4942206;29;20578;-56
2022/08/14 07:38:23;;;;;;;9.25;8.43;;;30.70;84.30;;;;;;4933634;28;20071;-56
2022/08/14 07:40:50;;;;;;;9.60;8.80;;;30.50;85.00;;;;;;4925349;29;20524;-56
2022/08/14 07:43:17;;;;;;;8.70;7.60;;;30.50;86.00;;;;;;4924269;29;20062;-57
2022/08/14 07:45:43;;;;;;;8.43;7.63;;;30.50;85.40;;;;;;4925584;29;20453;-57
2022/08/14 07:48:12;;;;;;;9.32;8.43;;;30.50;85.50;;;;;;4926521;29;20082;-57
2022/08/14 07:50:39;;;;;;;9.05;8.15;;;30.40;85.20;;;;;;4938549;29;20137;-57
2022/08/14 07:53:06;;;;;;;9.23;8.05;;;30.40;86.20;;;;;;4926460;29;20414;-56
2022/08/14 07:55:32;;;;;;;9.48;8.45;;;30.40;87.40;;;;;;4925551;29;20862;-57
2022/08/14 07:57:58;;;;;;;8.88;7.85;;;30.30;86.00;;;;;;4936883;29;20043;-57
2022/08/14 08:00:25;;;;;;;8.15;7.45;;;30.30;86.20;;;;;;4909840;29;20052;-57
2022/08/14 08:02:54;;;;;;;8.88;8.23;;;30.40;86.20;;;;;;4934513;29;20449;-57
2022/08/14 08:05:25;;;;;;;9.63;8.73;;;30.30;86.50;;;;;;4941419;29;20059;-57
2022/08/14 08:07:53;;;;;;;9.40;8.48;;;30.30;86.60;;;;;;4927024;28;20059;-57
2022/08/14 08:10:30;;;;;;;8.73;8.02;;;30.20;86.90;;;;;;4934045;29;20043;-57
2022/08/14 08:13:12;;;;;;;9.10;8.18;;;30.30;88.00;;;;;;4939627;28;20412;-57
2022/08/14 08:15:52;;;;;;;12.05;9.05;;;30.20;87.00;;;;;;4935119;28;20051;-57
2022/08/14 08:18:19;;;;;;;9.02;8.23;;;30.20;85.70;;;;;;4926232;28;20051;-57
2022/08/14 08:20:49;;;;;;;8.85;8.15;;;30.10;86.10;;;;;;4924168;29;20093;-57
2022/08/14 08:23:17;;;;;;;9.27;7.55;;;30.10;87.40;;;;;;4925282;29;20092;-57
2022/08/14 08:25:47;;;;;;;8.88;8.07;;;30.30;87.50;;;;;;4926223;29;20058;-58
2022/08/14 08:28:21;;;;;;;8.38;7.68;;;30.30;87.80;;;;;;4929690;29;20121;-57
2022/08/14 08:30:50;;;;;;;10.15;8.20;;;30.40;86.30;;;;;;4942409;29;20070;-57
2022/08/14 08:33:18;;;;;;;8.82;7.97;;;30.30;85.90;;;;;;4924932;29;20578;-57
2022/08/14 08:35:45;;;;;;;8.23;7.60;;;30.10;86.10;;;;;;4937689;29;20494;-57
2022/08/14 08:38:18;;;;;;;8.82;8.00;;;29.90;86.50;;;;;;4943419;29;20483;-59
2022/08/14 08:40:47;;;;;;;8.88;8.15;;;29.80;86.30;;;;;;4928054;28;20052;-60
2022/08/14 08:43:34;;;;;;;9.23;8.32;;;29.60;87.00;;;;;;4907983;28;20052;-61
2022/08/14 08:46:13;;;;;;;8.82;8.02;;;29.60;87.60;;;;;;4941040;28;20494;-59
2022/08/14 08:48:55;;;;;;;8.60;7.80;;;29.70;87.10;;;;;;4943879;28;20082;-60
2022/08/14 08:51:27;;;;;;;9.05;8.30;;;29.60;86.90;;;;;;4944304;28;20529;-60
2022/08/14 08:54:09;;;;;;;8.43;7.75;;;29.60;87.10;;;;;;4943696;29;20939;-60
2022/08/14 08:56:45;;;;;;;8.13;7.43;;;29.60;86.60;;;;;;4943898;28;20051;-59
2022/08/14 08:59:31;;;;;;;8.95;7.40;;;29.50;86.80;;;;;;4943829;28;20480;-59
2022/08/14 09:02:02;;;;;;;8.10;7.35;;;29.40;86.40;;;;;;4939894;28;20050;-60
2022/08/14 09:04:34;;;;;;;9.73;8.82;;;29.50;87.00;;;;;;4922765;29;20082;-60
2022/08/14 09:07:00;;;;;;;8.00;7.30;;;29.50;86.60;;;;;;4943185;28;20051;-60
2022/08/14 09:09:29;;;;;;;7.63;6.95;;;29.60;86.60;;;;;;4943493;28;20051;-60
2022/08/14 09:11:58;;;;;;;7.78;7.15;;;29.70;87.20;;;;;;4942425;28;20039;-60
2022/08/14 09:14:35;;;;;;;8.88;7.85;;;29.70;87.40;;;;;;4936177;28;20597;-59
2022/08/14 09:17:04;;;;;;;8.68;7.78;;;29.70;87.60;;;;;;4935147;28;20549;-60
2022/08/14 09:19:30;;;;;;;8.63;7.85;;;29.70;87.60;;;;;;4931935;28;20083;-60
2022/08/14 09:21:56;;;;;;;8.73;7.88;;;29.70;87.30;;;;;;4925630;29;20067;-60
2022/08/14 09:24:24;;;;;;;7.97;7.25;;;29.80;88.00;;;;;;4930168;29;20059;-59
2022/08/14 09:26:53;;;;;;;10.57;7.30;;;29.80;86.30;;;;;;4936537;29;20051;-60
2022/08/14 09:29:19;;;;;;;8.90;7.03;;;29.90;85.80;;;;;;4935048;28;20139;-59
2022/08/14 09:31:53;;;;;;;7.43;6.78;;;29.80;85.40;;;;;;4943355;29;20057;-58
2022/08/14 09:35:08;;;;;;;8.25;7.55;;;29.80;84.70;;;;;;4938176;28;20051;-59
2022/08/14 09:38:06;;;;;;;8.40;7.53;;;29.70;85.40;;;;;;4921576;29;20105;-59
2022/08/14 09:40:44;;;;;;;8.63;7.82;;;30.00;85.50;;;;;;4923363;29;20418;-59
2022/08/14 09:43:30;;;;;;;7.65;7.05;;;30.10;85.90;;;;;;4924500;29;20056;-59
2022/08/14 09:45:57;;;;;;;7.72;6.93;;;30.10;86.40;;;;;;4937282;28;20052;-59
2022/08/14 09:48:29;;;;;;;7.25;6.65;;;30.20;85.80;;;;;;4922423;29;20066;-59
2022/08/14 09:50:57;;;;;;;7.70;7.00;;;30.30;85.20;;;;;;4923400;29;20060;-60
2022/08/14 09:53:42;;;;;;;8.25;7.55;;;30.50;85.10;;;;;;4923360;29;20044;-60
2022/08/14 09:56:12;;;;;;;7.93;7.30;;;30.30;85.10;;;;;;4934800;28;20109;-60
2022/08/14 09:58:45;;;;;;;9.02;6.88;;;30.50;85.80;;;;;;4930706;28;20059;-61
2022/08/14 10:01:20;;;;;;;8.40;7.40;;;30.40;83.80;;;;;;4922718;29;20118;-60
2022/08/14 10:03:55;;;;;;;8.55;7.60;;;30.50;85.00;;;;;;4939504;29;20392;-60
2022/08/14 10:06:24;;;;;;;8.30;7.60;;;30.60;85.00;;;;;;4930451;28;20059;-60
2022/08/14 10:08:53;;;;;;;7.68;6.97;;;30.70;84.20;;;;;;4921362;29;20077;-60
2022/08/14 10:11:26;;;;;;;7.22;6.65;;;30.70;84.20;;;;;;4925968;28;20058;-60
2022/08/14 10:13:56;;;;;;;8.35;7.65;;;30.80;84.60;;;;;;4940722;28;20151;-60
2022/08/14 10:16:29;;;;;;;7.38;6.78;;;30.90;83.90;;;;;;4941219;29;20560;-61
2022/08/14 10:19:06;;;;;;;7.60;6.90;;;31.00;85.40;;;;;;4931384;28;20059;-60
2022/08/14 10:21:32;;;;;;;8.38;7.63;;;31.10;84.60;;;;;;4938690;29;20059;-60
2022/08/14 10:23:59;;;;;;;7.47;6.93;;;31.20;84.40;;;;;;4942063;29;20097;-60
2022/08/14 10:26:26;;;;;;;7.28;6.78;;;31.30;83.80;;;;;;4938304;29;20521;-60
2022/08/14 10:28:53;;;;;;;8.80;7.15;;;31.30;83.00;;;;;;4931688;29;20047;-60
2022/08/14 10:31:36;;;;;;;7.32;6.65;;;31.30;83.40;;;;;;4924603;28;20062;-60
2022/08/14 10:34:12;;;;;;;8.05;7.28;;;31.30;83.10;;;;;;4907876;29;20490;-61
2022/08/14 10:36:40;;;;;;;8.80;8.00;;;31.30;84.80;;;;;;4923756;29;20048;-61
2022/08/14 10:39:24;;;;;;;6.90;6.30;;;31.30;83.00;;;;;;4921763;29;20074;-60
2022/08/14 10:42:04;;;;;;;8.00;6.93;;;31.20;82.50;;;;;;4921209;29;20071;-61
2022/08/14 10:44:40;;;;;;;7.63;6.30;;;31.10;82.00;;;;;;4907101;29;20426;-61
2022/08/14 10:47:11;;;;;;;10.63;7.28;;;31.10;81.40;;;;;;4923455;29;20107;-61
2022/08/14 10:49:52;;;;;;;8.73;7.03;;;31.00;81.70;;;;;;4922908;29;20790;-60
2022/08/14 10:52:23;;;;;;;7.90;7.18;;;31.00;82.40;;;;;;4923268;29;20834;-66
2022/08/14 10:55:07;;;;;;;7.15;6.55;;;31.20;82.60;;;;;;4923538;29;20531;-60
2022/08/14 10:57:47;;;;;;;7.07;6.47;;;31.20;82.00;;;;;;4931242;28;20048;-62
2022/08/14 11:00:17;;;;;;;7.63;6.80;;;31.30;83.30;;;;;;4924806;28;20063;-62
2022/08/14 11:02:43;;;;;;;6.30;5.80;;;31.30;82.20;;;;;;4923595;29;20048;-62
2022/08/14 11:05:18;;;;;;;7.00;6.40;;;31.40;85.00;;;;;;4936613;29;20880;-61
2022/08/14 11:07:59;;;;;;;7.30;6.13;;;31.50;82.40;;;;;;4923171;29;20056;-60
2022/08/14 11:10:41;;;;;;;7.38;6.68;;;31.60;81.90;;;;;;4943816;28;20165;-61
2022/08/14 11:13:26;;;;;;;7.47;6.47;;;31.50;81.30;;;;;;4940389;28;20055;-61
2022/08/14 11:15:55;;;;;;;6.90;6.25;;;31.70;81.80;;;;;;4946378;28;20070;-61
2022/08/14 11:18:22;;;;;;;6.95;6.30;;;31.60;80.50;;;;;;4939279;28;20044;-61
2022/08/14 11:20:53;;;;;;;7.00;6.40;;;31.40;81.60;;;;;;4925770;29;20065;-61
2022/08/14 11:23:21;;;;;;;6.93;6.18;;;31.30;81.10;;;;;;4935022;28;20142;-60
2022/08/14 11:25:48;;;;;;;6.82;6.07;;;31.30;81.50;;;;;;4940604;28;20081;-61
2022/08/14 11:28:15;;;;;;;7.15;6.65;;;31.20;81.70;;;;;;4941118;28;20093;-60
2022/08/14 11:30:49;;;;;;;6.90;6.20;;;31.30;81.90;;;;;;4929745;29;20065;-60
2022/08/14 11:33:15;;;;;;;6.25;5.65;;;31.30;83.20;;;;;;4926675;29;20058;-61
2022/08/14 11:35:46;;;;;;;6.38;5.78;;;31.50;83.40;;;;;;4926015;29;20055;-61
2022/08/14 11:38:12;;;;;;;6.07;5.57;;;31.50;82.50;;;;;;4926719;29;20048;-61
2022/08/14 11:40:38;;;;;;;6.82;6.22;;;31.50;82.60;;;;;;4923745;29;20068;-61
2022/08/14 11:43:06;;;;;;;6.85;6.35;;;31.60;82.10;;;;;;4925839;29;20874;-61
2022/08/14 11:45:36;;;;;;;6.60;6.00;;;31.70;81.70;;;;;;4925682;29;20048;-61
2022/08/14 11:48:17;;;;;;;6.80;6.00;;;31.70;83.50;;;;;;4926121;29;20064;-61
2022/08/14 11:50:44;;;;;;;6.65;6.05;;;31.80;83.00;;;;;;4943632;29;20089;-61
2022/08/14 11:53:30;;;;;;;7.20;6.50;;;31.80;82.80;;;;;;4945413;28;20058;-61
2022/08/14 11:56:05;;;;;;;6.95;6.32;;;32.00;82.70;;;;;;4945573;28;20051;-61
2022/08/14 11:58:36;;;;;;;6.88;6.22;;;31.90;83.50;;;;;;4934853;28;20095;-61
2022/08/14 12:01:05;;;;;;;7.13;6.43;;;32.00;81.00;;;;;;4926493;29;20056;-61
2022/08/14 12:03:42;;;;;;;9.52;6.72;;;31.90;79.40;;;;;;4932055;29;20047;-61
2022/08/14 12:06:13;;;;;;;7.35;6.57;;;31.80;79.90;;;;;;4947593;28;20499;-62
2022/08/14 12:08:39;;;;;;;7.40;6.68;;;31.50;80.20;;;;;;4927873;29;20138;-61
2022/08/14 12:11:07;;;;;;;6.85;6.35;;;31.50;80.60;;;;;;4927917;29;20060;-61
2022/08/14 12:13:34;;;;;;;8.35;6.75;;;31.60;81.30;;;;;;4925913;29;20629;-61
2022/08/14 12:16:22;;;;;;;7.95;6.53;;;31.70;81.60;;;;;;4926872;29;20051;-61
2022/08/14 12:18:49;;;;;;;7.07;6.47;;;31.80;80.70;;;;;;4938723;28;20128;-61
2022/08/14 12:21:22;;;;;;;6.90;5.85;;;31.80;81.70;;;;;;4941046;28;20095;-61
2022/08/14 12:24:06;;;;;;;6.18;5.60;;;31.90;81.20;;;;;;4928237;29;20051;-61
2022/08/14 12:26:33;;;;;;;6.15;5.65;;;31.90;80.30;;;;;;4941753;29;20063;-61
2022/08/14 12:29:11;;;;;;;6.10;5.60;;;31.90;81.10;;;;;;4935044;28;20521;-61
2022/08/14 12:31:40;;;;;;;7.95;5.70;;;32.00;80.30;;;;;;4936129;28;20090;-61
2022/08/14 12:34:08;;;;;;;6.00;5.43;;;32.00;79.40;;;;;;4943649;28;20047;-61
2022/08/14 12:36:35;;;;;;;6.57;5.97;;;31.90;79.40;;;;;;4944250;28;20047;-61
2022/08/14 12:39:04;;;;;;;6.30;5.78;;;32.00;79.40;;;;;;4927435;29;20081;-61
2022/08/14 12:41:34;;;;;;;6.78;6.15;;;31.90;79.80;;;;;;4924706;29;20462;-62
2022/08/14 12:44:06;;;;;;;7.82;6.95;;;32.00;81.40;;;;;;4923821;29;20051;-62
2022/08/14 12:46:42;;;;;;;;;;;32.10;80.90;;;;;;4925760;29;20056;-63
2022/08/14 12:49:21;;;;;;;6.80;5.93;;;32.00;79.40;;;;;;4922915;29;19927;-61
2022/08/14 12:51:58;;;;;;;6.20;5.60;;;32.10;79.40;;;;;;4923813;29;20083;-61
2022/08/14 12:54:25;;;;;;;6.95;6.35;;;32.10;79.30;;;;;;4935763;29;20055;-61
2022/08/14 12:57:03;;;;;;;6.68;6.18;;;32.10;80.50;;;;;;4943760;28;20078;-61
2022/08/14 12:59:34;;;;;;;6.72;6.22;;;32.00;81.10;;;;;;4925508;28;20526;-61
2022/08/14 13:02:00;;;;;;;7.10;6.40;;;32.10;81.60;;;;;;4935036;29;20139;-61
2022/08/14 13:04:30;;;;;;;7.72;5.82;;;32.10;79.50;;;;;;4932901;29;20453;-62
2022/08/14 13:07:07;;;;;;;6.47;5.88;;;32.00;80.10;;;;;;4942880;28;20116;-61
2022/08/14 13:09:38;;;;;;;6.90;6.25;;;32.10;81.40;;;;;;4943283;28;20096;-61
2022/08/14 13:12:04;;;;;;;6.63;5.97;;;32.10;79.50;;;;;;4939724;29;20086;-61